createdAt,value
2022-11-29T00:01:16.167Z,6.65
2022-11-29T00:03:42.979Z,9.77
2022-11-29T00:06:12.628Z,11.93
2022-11-29T00:08:39.180Z,11.05
2022-11-29T00:11:08.656Z,12.70
2022-11-29T00:13:35.744Z,12.40
2022-11-29T00:16:07.714Z,9.18
2022-11-29T00:18:34.650Z,13.00
2022-11-29T00:21:05.574Z,12.95
2022-11-29T00:23:32.052Z,11.45
2022-11-29T00:26:05.840Z,7.25
2022-11-29T00:28:32.807Z,10.60
2022-11-29T00:30:59.416Z,12.40
2022-11-29T00:33:26.630Z,12.10
2022-11-29T00:35:53.065Z,12.18
2022-11-29T00:38:19.520Z,11.73
2022-11-29T00:40:51.727Z,7.68
2022-11-29T00:43:18.334Z,9.98
2022-11-29T00:45:44.863Z,10.32
2022-11-29T00:48:11.329Z,7.45
2022-11-29T00:50:37.763Z,10.18
2022-11-29T00:53:04.222Z,12.65
2022-11-29T00:55:30.661Z,11.43
2022-11-29T00:57:57.131Z,12.60
2022-11-29T01:00:23.582Z,13.00
2022-11-29T01:02:50.034Z,11.18
2022-11-29T01:05:16.476Z,9.57
2022-11-29T01:07:42.972Z,9.48
2022-11-29T01:10:09.897Z,11.40
2022-11-29T01:12:37.754Z,10.40
2022-11-29T01:15:06.374Z,8.88
2022-11-29T01:17:35.920Z,12.73
2022-11-29T01:20:03.712Z,12.93
2022-11-29T01:22:30.188Z,11.77
2022-11-29T01:24:56.627Z,13.02
2022-11-29T01:27:23.219Z,14.40
2022-11-29T01:29:49.662Z,12.18
2022-11-29T01:32:16.272Z,10.80
2022-11-29T01:34:43.200Z,12.95
2022-11-29T01:37:09.825Z,14.32
2022-11-29T01:39:36.304Z,13.60
2022-11-29T01:42:03.112Z,10.95
2022-11-29T01:44:29.489Z,10.00
2022-11-29T01:46:56.914Z,10.57
2022-11-29T01:49:36.811Z,13.02
2022-11-29T01:52:08.062Z,12.98
2022-11-29T01:54:39.495Z,9.23
2022-11-29T01:57:08.490Z,14.32
2022-11-29T01:59:37.286Z,12.05
2022-11-29T02:02:12.591Z,6.05
2022-11-29T02:04:42.173Z,8.95
2022-11-29T02:07:09.407Z,10.02
2022-11-29T02:09:35.848Z,14.93
2022-11-29T02:12:26.822Z,14.13
2022-11-29T02:15:02.154Z,15.05
2022-11-29T02:17:46.149Z,8.75
2022-11-29T02:20:54.856Z,16.85
2022-11-29T02:23:39.859Z,12.35
2022-11-29T02:26:40.479Z,14.20
2022-11-29T02:29:41.048Z,14.98
2022-11-29T02:32:49.772Z,15.48
2022-11-29T02:35:43.832Z,16.55
2022-11-29T02:38:22.435Z,16.55
2022-11-29T02:40:54.388Z,18.52
2022-11-29T02:43:45.855Z,16.80
2022-11-29T02:46:34.259Z,16.85
2022-11-29T02:49:12.016Z,11.70
2022-11-29T02:51:49.521Z,15.98
2022-11-29T02:54:34.032Z,8.02
2022-11-29T02:57:11.624Z,14.18
2022-11-29T02:59:47.084Z,17.58
2022-11-29T03:02:37.357Z,18.27
2022-11-29T03:05:15.315Z,13.63
2022-11-29T03:07:50.446Z,19.50
2022-11-29T03:10:28.628Z,16.40
2022-11-29T03:12:55.633Z,21.20
2022-11-29T03:15:48.129Z,19.25
2022-11-29T03:18:33.215Z,19.67
2022-11-29T03:21:24.608Z,16.13
2022-11-29T03:23:55.085Z,18.52
2022-11-29T03:26:29.775Z,15.18
2022-11-29T03:29:08.081Z,19.60
2022-11-29T03:31:39.106Z,20.27
2022-11-29T03:34:26.304Z,16.52
2022-11-29T03:37:06.136Z,17.55
2022-11-29T03:39:44.699Z,12.32
2022-11-29T03:42:16.416Z,21.08
2022-11-29T03:47:26.131Z,17.65
2022-11-29T03:49:58.982Z,20.20
2022-11-29T03:52:31.603Z,17.58
2022-11-29T03:55:24.738Z,20.77
2022-11-29T03:58:08.243Z,16.88
2022-11-29T04:00:49.564Z,23.35
2022-11-29T04:03:32.155Z,21.40
2022-11-29T04:05:58.533Z,22.52
2022-11-29T04:08:49.810Z,20.50
2022-11-29T04:11:55.162Z,17.58
2022-11-29T04:14:28.752Z,14.48
2022-11-29T04:17:17.331Z,22.52
2022-11-29T04:20:05.308Z,21.33
2022-11-29T04:22:59.261Z,21.40
2022-11-29T04:25:36.877Z,15.75
2022-11-29T04:28:37.812Z,11.98
2022-11-29T04:31:22.790Z,19.50
2022-11-29T04:34:04.348Z,17.67
2022-11-29T04:37:09.261Z,18.90
2022-11-29T04:40:09.922Z,18.45
2022-11-29T04:43:08.797Z,15.45
2022-11-29T04:45:55.699Z,19.65
2022-11-29T04:48:56.048Z,19.42
2022-11-29T04:51:53.704Z,13.38
2022-11-29T04:54:27.594Z,18.98
2022-11-29T04:57:06.028Z,15.45
2022-11-29T04:59:48.199Z,15.70
2022-11-29T05:02:52.219Z,17.42
2022-11-29T05:05:27.591Z,18.98
2022-11-29T05:08:32.140Z,20.95
2022-11-29T05:11:10.576Z,17.10
2022-11-29T05:13:50.980Z,19.42
2022-11-29T05:16:29.072Z,10.18
2022-11-29T05:19:13.290Z,20.75
2022-11-29T05:24:12.090Z,20.52
2022-11-29T05:26:50.182Z,17.63
2022-11-29T05:29:26.039Z,14.52
2022-11-29T05:32:04.762Z,15.60
2022-11-29T05:34:40.208Z,15.65
2022-11-29T05:37:31.248Z,20.20
2022-11-29T05:40:36.588Z,17.17
2022-11-29T05:43:24.451Z,18.40
2022-11-29T05:46:12.750Z,19.48
2022-11-29T05:48:48.892Z,20.80
2022-11-29T05:51:40.052Z,15.77
2022-11-29T05:54:33.698Z,14.20
2022-11-29T05:57:11.406Z,20.02
2022-11-29T05:59:38.992Z,12.50
2022-11-29T06:02:20.337Z,19.05
2022-11-29T06:04:58.634Z,17.60
2022-11-29T06:07:37.381Z,16.05
2022-11-29T06:10:06.976Z,13.73
2022-11-29T06:12:35.933Z,12.65
2022-11-29T06:15:46.526Z,12.07
2022-11-29T06:18:44.753Z,18.48
2022-11-29T06:21:29.806Z,18.85
2022-11-29T06:24:23.286Z,19.45
2022-11-29T06:27:05.726Z,19.60
2022-11-29T06:29:50.484Z,19.67
2022-11-29T06:32:30.491Z,19.55
2022-11-29T06:35:00.628Z,10.57
2022-11-29T06:37:38.941Z,18.90
2022-11-29T06:40:09.639Z,12.32
2022-11-29T06:42:36.204Z,18.95
2022-11-29T06:45:03.499Z,13.40
2022-11-29T06:47:57.841Z,20.23
2022-11-29T06:50:30.317Z,16.08
2022-11-29T06:53:23.597Z,12.20
2022-11-29T06:56:17.992Z,19.63
2022-11-29T06:58:57.967Z,18.50
2022-11-29T07:01:42.326Z,13.15
2022-11-29T07:04:35.225Z,17.23
2022-11-29T07:07:02.041Z,13.35
2022-11-29T07:09:34.670Z,17.95
2022-11-29T07:12:01.467Z,17.13
2022-11-29T07:14:28.228Z,18.98
2022-11-29T07:17:03.465Z,18.15
2022-11-29T07:19:42.516Z,16.63
2022-11-29T07:22:17.708Z,16.55
2022-11-29T07:25:03.244Z,17.20
2022-11-29T07:27:38.118Z,17.60
2022-11-29T07:30:16.783Z,13.35
2022-11-29T07:33:14.715Z,17.73
2022-11-29T07:35:53.271Z,14.45
2022-11-29T07:38:29.591Z,16.60
2022-11-29T07:41:16.546Z,17.33
2022-11-29T07:43:53.938Z,16.50
2022-11-29T07:46:20.440Z,17.75
2022-11-29T07:48:46.912Z,17.40
2022-11-29T07:51:14.205Z,19.23
2022-11-29T07:53:43.713Z,14.43
2022-11-29T07:56:10.726Z,16.70
2022-11-29T07:58:37.234Z,13.20
2022-11-29T08:01:03.967Z,16.38
2022-11-29T08:03:35.342Z,18.02
2022-11-29T08:06:02.800Z,18.40
2022-11-29T08:08:29.361Z,19.38
2022-11-29T08:10:55.933Z,17.60
2022-11-29T08:13:22.421Z,16.63
2022-11-29T08:16:19.325Z,16.63
2022-11-29T08:18:45.818Z,16.77
2022-11-29T08:21:17.827Z,15.65
2022-11-29T08:23:48.519Z,13.57
2022-11-29T08:26:16.324Z,15.65
2022-11-29T08:28:42.852Z,17.98
2022-11-29T08:31:11.304Z,15.60
2022-11-29T08:33:40.732Z,16.88
2022-11-29T08:36:13.053Z,13.35
2022-11-29T08:38:40.231Z,14.60
2022-11-29T08:41:09.166Z,13.40
2022-11-29T08:43:36.096Z,14.85
2022-11-29T08:46:02.980Z,18.55
2022-11-29T08:48:29.523Z,16.05
2022-11-29T08:50:56.737Z,16.60
2022-11-29T08:53:42.241Z,17.08
2022-11-29T08:56:53.325Z,16.10
2022-11-29T08:59:00.805Z,15.00
2022-11-29T09:01:27.383Z,14.48
2022-11-29T09:03:59.593Z,16.42
2022-11-29T09:06:28.131Z,12.23
2022-11-29T09:08:56.448Z,14.57
2022-11-29T09:11:24.531Z,15.20
2022-11-29T09:13:53.768Z,15.40
2022-11-29T09:16:23.921Z,15.63
2022-11-29T09:18:52.089Z,16.00
2022-11-29T09:21:19.512Z,11.48
2022-11-29T09:23:46.396Z,12.98
2022-11-29T09:26:17.385Z,13.48
2022-11-29T09:28:43.902Z,14.10
2022-11-29T09:31:13.253Z,13.90
2022-11-29T09:33:40.208Z,11.85
2022-11-29T09:36:09.439Z,11.40
2022-11-29T09:38:36.514Z,13.35
2022-11-29T09:41:06.748Z,12.85
2022-11-29T09:44:00.636Z,12.80
2022-11-29T09:46:58.844Z,13.02
2022-11-29T09:50:03.649Z,13.70
2022-11-29T09:52:59.499Z,11.43
2022-11-29T09:55:57.004Z,10.32
2022-11-29T09:58:32.781Z,13.35
2022-11-29T10:01:06.130Z,13.73
2022-11-29T10:03:40.862Z,12.27
2022-11-29T10:06:17.949Z,10.02
2022-11-29T10:08:51.459Z,11.60
2022-11-29T10:11:25.196Z,10.40
2022-11-29T10:13:57.839Z,12.10
2022-11-29T10:16:42.020Z,10.73
2022-11-29T10:22:07.251Z,11.85
2022-11-29T10:24:34.231Z,13.65
2022-11-29T10:27:00.809Z,12.65
2022-11-29T10:29:27.304Z,14.10
2022-11-29T10:31:56.779Z,12.32
2022-11-29T10:34:26.085Z,10.27
2022-11-29T10:36:59.382Z,11.85
2022-11-29T10:39:37.066Z,11.98
2022-11-29T10:42:06.468Z,11.32
2022-11-29T10:44:33.677Z,11.10
2022-11-29T10:47:05.445Z,11.85
2022-11-29T10:49:36.096Z,10.95
2022-11-29T10:52:02.569Z,11.77
2022-11-29T10:54:38.615Z,10.70
2022-11-29T10:57:14.309Z,11.20
2022-11-29T10:59:40.796Z,11.20
2022-11-29T11:02:21.042Z,11.60
2022-11-29T11:04:48.213Z,11.98
2022-11-29T11:07:25.395Z,10.82
2022-11-29T11:09:55.939Z,11.75
2022-11-29T11:12:26.831Z,10.85
2022-11-29T11:15:15.518Z,12.48
2022-11-29T11:18:04.749Z,12.55
2022-11-29T11:20:37.164Z,12.30
2022-11-29T11:23:26.664Z,11.57
2022-11-29T11:26:00.334Z,11.25
2022-11-29T11:28:30.945Z,10.60
2022-11-29T11:31:08.490Z,10.00
2022-11-29T11:33:38.628Z,11.63
2022-11-29T11:36:21.119Z,11.60
2022-11-29T11:38:59.058Z,10.52
2022-11-29T11:41:57.226Z,12.70
2022-11-29T11:44:47.284Z,12.60
2022-11-29T11:47:18.921Z,13.73
2022-11-29T11:50:04.053Z,13.35
2022-11-29T11:52:39.824Z,12.50
2022-11-29T11:55:29.130Z,12.30
2022-11-29T11:58:09.814Z,12.85
2022-11-29T12:01:05.035Z,13.57
2022-11-29T12:03:53.056Z,13.88
2022-11-29T12:06:19.425Z,11.68
2022-11-29T12:08:48.894Z,14.10
2022-11-29T12:11:18.830Z,13.07
2022-11-29T12:14:17.995Z,14.27
2022-11-29T12:16:49.175Z,10.95
2022-11-29T12:19:43.765Z,13.45
2022-11-29T12:22:16.308Z,11.90
2022-11-29T12:24:52.961Z,13.15
2022-11-29T12:27:19.516Z,13.90
2022-11-29T12:29:46.037Z,13.27
2022-11-29T12:32:24.804Z,12.07
2022-11-29T12:35:19.337Z,13.75
2022-11-29T12:38:06.133Z,13.88
2022-11-29T12:40:35.282Z,9.40
2022-11-29T12:43:02.079Z,14.70
2022-11-29T12:46:04.734Z,13.50
2022-11-29T12:48:43.646Z,13.95
2022-11-29T12:51:21.607Z,13.77
2022-11-29T12:54:25.725Z,10.45
2022-11-29T12:57:30.721Z,13.88
2022-11-29T13:00:25.013Z,13.88
2022-11-29T13:03:25.679Z,13.32
2022-11-29T13:06:08.489Z,13.55
2022-11-29T13:09:02.688Z,11.57
2022-11-29T13:11:31.117Z,13.80
2022-11-29T13:14:34.535Z,10.88
2022-11-29T13:16:58.961Z,13.35
2022-11-29T13:19:50.270Z,13.68
2022-11-29T13:22:35.463Z,14.77
2022-11-29T13:25:13.164Z,12.55
2022-11-29T13:27:56.801Z,15.25
2022-11-29T13:30:23.272Z,13.77
2022-11-29T13:33:08.687Z,13.00
2022-11-29T13:35:44.901Z,14.45
2022-11-29T13:38:21.378Z,14.85
2022-11-29T13:40:58.146Z,15.10
2022-11-29T13:43:44.560Z,16.67
2022-11-29T13:46:23.240Z,15.25
2022-11-29T13:48:52.879Z,14.70
2022-11-29T13:51:28.698Z,13.05
2022-11-29T13:53:56.956Z,11.65
2022-11-29T13:56:36.141Z,12.70
2022-11-29T13:59:08.753Z,15.18
2022-11-29T14:01:47.711Z,13.45
2022-11-29T14:04:31.943Z,14.63
2022-11-29T14:07:24.857Z,14.73
2022-11-29T14:09:59.384Z,14.13
2022-11-29T14:12:37.153Z,14.75
2022-11-29T14:15:14.615Z,15.38
2022-11-29T14:17:50.814Z,13.88
2022-11-29T14:20:23.395Z,13.55
2022-11-29T14:23:05.219Z,12.20
2022-11-29T14:25:57.514Z,12.48
2022-11-29T14:28:23.932Z,14.05
2022-11-29T14:30:55.465Z,16.27
2022-11-29T14:33:46.381Z,14.98
2022-11-29T14:36:18.790Z,13.30
2022-11-29T14:39:10.261Z,13.52
2022-11-29T14:41:58.508Z,17.48
2022-11-29T14:44:28.305Z,18.13
2022-11-29T14:47:15.540Z,17.02
2022-11-29T14:49:44.496Z,16.65
2022-11-29T14:52:13.896Z,14.77
2022-11-29T14:55:02.948Z,15.85
2022-11-29T14:57:51.168Z,15.32
2022-11-29T15:00:21.528Z,17.45
2022-11-29T15:03:17.514Z,14.80
2022-11-29T15:05:48.741Z,16.42
2022-11-29T15:08:54.174Z,18.23
2022-11-29T15:11:34.121Z,16.35
2022-11-29T15:14:20.441Z,15.25
2022-11-29T15:16:55.534Z,14.52
2022-11-29T15:19:40.916Z,14.98
2022-11-29T15:22:33.584Z,16.63
2022-11-29T15:25:05.096Z,14.95
2022-11-29T15:27:34.154Z,13.27
2022-11-29T15:30:39.434Z,15.40
2022-11-29T15:33:21.351Z,13.48
2022-11-29T15:35:53.589Z,13.80
2022-11-29T15:38:21.786Z,14.10
2022-11-29T15:40:52.883Z,13.25
2022-11-29T15:43:53.638Z,16.52
2022-11-29T15:46:24.840Z,14.32
2022-11-29T15:48:51.333Z,14.23
2022-11-29T15:51:33.625Z,16.50
2022-11-29T15:54:13.799Z,14.20
2022-11-29T15:56:56.435Z,14.50
2022-11-29T15:59:40.779Z,15.73
2022-11-29T16:02:30.025Z,16.38
2022-11-29T16:05:03.021Z,15.00
2022-11-29T16:07:32.615Z,15.88
2022-11-29T16:10:13.078Z,14.48
2022-11-29T16:12:52.689Z,15.05
2022-11-29T16:15:28.105Z,14.80
2022-11-29T16:17:54.752Z,13.10
2022-11-29T16:20:24.308Z,15.38
2022-11-29T16:23:11.313Z,14.60
2022-11-29T16:25:55.872Z,15.70
2022-11-29T16:28:32.836Z,15.25
2022-11-29T16:31:00.067Z,15.85
2022-11-29T16:33:27.226Z,16.23
2022-11-29T16:36:16.616Z,16.13
2022-11-29T16:38:48.682Z,16.63
2022-11-29T16:41:35.497Z,15.85
2022-11-29T16:44:03.628Z,17.77
2022-11-29T16:46:35.962Z,14.20
2022-11-29T16:49:34.522Z,16.08
2022-11-29T16:52:02.446Z,15.20
2022-11-29T16:54:35.370Z,16.50
2022-11-29T16:57:05.394Z,18.02
2022-11-29T16:59:32.483Z,13.10
2022-11-29T17:01:59.470Z,15.40
2022-11-29T17:04:26.358Z,17.58
2022-11-29T17:06:54.820Z,16.27
2022-11-29T17:09:24.419Z,14.88
2022-11-29T17:11:51.720Z,18.05
2022-11-29T17:14:18.237Z,16.38
2022-11-29T17:16:44.833Z,17.90
2022-11-29T17:19:12.640Z,16.13
2022-11-29T17:21:39.296Z,17.50
2022-11-29T17:24:06.360Z,17.35
2022-11-29T17:26:32.825Z,16.92
2022-11-29T17:28:59.284Z,15.50
2022-11-29T17:31:25.881Z,15.55
2022-11-29T17:33:52.448Z,17.90
2022-11-29T17:36:21.173Z,17.35
2022-11-29T17:38:48.061Z,18.20
2022-11-29T17:41:22.260Z,18.10
2022-11-29T17:43:50.874Z,16.38
2022-11-29T17:46:24.979Z,19.65
2022-11-29T17:48:52.432Z,17.40
2022-11-29T17:54:08.503Z,16.70
2022-11-29T17:56:35.123Z,17.63
2022-11-29T17:59:03.597Z,17.63
2022-11-29T18:01:33.541Z,18.02
2022-11-29T18:04:01.790Z,14.18
2022-11-29T18:06:30.918Z,18.02
2022-11-29T18:08:59.620Z,16.48
2022-11-29T18:11:32.432Z,12.80
2022-11-29T18:14:03.506Z,12.63
2022-11-29T18:16:32.945Z,15.82
2022-11-29T18:19:01.706Z,15.68
2022-11-29T18:21:28.730Z,12.57
2022-11-29T18:23:55.692Z,16.80
2022-11-29T18:26:24.276Z,14.55
2022-11-29T18:28:51.615Z,15.98
2022-11-29T18:31:28.297Z,16.70
2022-11-29T18:33:57.767Z,13.45
2022-11-29T18:36:27.052Z,19.23
2022-11-29T18:38:59.278Z,15.15
2022-11-29T18:41:27.211Z,14.85
2022-11-29T18:43:59.239Z,18.70
2022-11-29T18:46:28.221Z,14.23
2022-11-29T18:48:54.701Z,18.02
2022-11-29T18:51:21.209Z,19.30
2022-11-29T18:53:47.718Z,16.45
2022-11-29T18:56:19.960Z,16.98
2022-11-29T18:58:47.830Z,15.95
2022-11-29T19:01:17.020Z,19.55
2022-11-29T19:03:46.034Z,19.50
2022-11-29T19:06:14.752Z,19.92
2022-11-29T19:08:42.879Z,13.90
2022-11-29T19:11:17.790Z,18.90
2022-11-29T19:13:44.826Z,18.02
2022-11-29T19:16:15.385Z,16.48
2022-11-29T19:18:42.208Z,17.38
2022-11-29T19:21:14.361Z,16.67
2022-11-29T19:23:41.861Z,17.48
2022-11-29T19:26:12.833Z,20.08
2022-11-29T19:28:42.105Z,17.58
2022-11-29T19:31:09.712Z,18.33
2022-11-29T19:33:37.875Z,20.90
2022-11-29T19:36:06.489Z,18.48
2022-11-29T19:38:35.740Z,19.00
2022-11-29T19:41:20.600Z,18.88
2022-11-29T19:43:48.405Z,19.38
2022-11-29T19:46:20.938Z,14.15
2022-11-29T19:48:47.888Z,19.98
2022-11-29T19:51:17.976Z,18.00
2022-11-29T19:53:45.884Z,18.60
2022-11-29T19:56:15.420Z,15.15
2022-11-29T19:58:42.747Z,17.85
2022-11-29T20:01:16.351Z,17.92
2022-11-29T20:03:43.520Z,17.50
2022-11-29T20:06:10.884Z,17.63
2022-11-29T20:08:37.922Z,18.23
2022-11-29T20:11:13.148Z,14.73
2022-11-29T20:13:41.098Z,18.48
2022-11-29T20:16:10.898Z,13.38
2022-11-29T20:18:43.543Z,17.80
2022-11-29T20:21:17.759Z,15.52
2022-11-29T20:23:44.251Z,17.92
2022-11-29T20:26:14.952Z,17.70
2022-11-29T20:28:42.219Z,15.60
2022-11-29T20:31:12.939Z,16.95
2022-11-29T20:33:42.468Z,11.90
2022-11-29T20:36:08.834Z,12.98
2022-11-29T20:38:47.464Z,19.45
2022-11-29T20:42:18.712Z,13.95
2022-11-29T20:44:51.057Z,17.58
2022-11-29T20:47:23.353Z,14.27
2022-11-29T20:49:50.461Z,15.00
2022-11-29T20:52:45.070Z,18.38
2022-11-29T20:55:13.826Z,16.20
2022-11-29T20:57:40.255Z,19.92
2022-11-29T21:00:09.138Z,21.92
2022-11-29T21:02:35.650Z,17.40
2022-11-29T21:05:02.216Z,20.95
2022-11-29T21:07:29.255Z,21.38
2022-11-29T21:10:00.936Z,19.85
2022-11-29T21:12:29.108Z,18.85
2022-11-29T21:14:55.784Z,17.80
2022-11-29T21:17:22.559Z,20.55
2022-11-29T21:19:49.428Z,20.80
2022-11-29T21:22:25.455Z,20.60
2022-11-29T21:25:41.132Z,21.08
2022-11-29T21:28:15.537Z,20.67
2022-11-29T21:30:43.056Z,19.85
2022-11-29T21:33:11.175Z,19.63
2022-11-29T21:35:42.006Z,21.48
2022-11-29T21:38:14.694Z,17.92
2022-11-29T21:40:41.200Z,17.23
2022-11-29T21:43:10.460Z,20.40
2022-11-29T21:45:37.028Z,16.20
2022-11-29T21:48:03.594Z,20.60
2022-11-29T21:50:30.028Z,16.10
2022-11-29T21:52:56.481Z,20.13
2022-11-29T21:55:22.934Z,17.45
2022-11-29T21:57:49.366Z,17.70
2022-11-29T22:00:16.253Z,18.05
2022-11-29T22:02:42.827Z,19.67
2022-11-29T22:05:09.659Z,18.88
2022-11-29T22:07:36.284Z,16.30
2022-11-29T22:10:09.979Z,18.38
2022-11-29T22:12:42.855Z,18.75
2022-11-29T22:15:13.985Z,17.10
2022-11-29T22:17:40.428Z,18.40
2022-11-29T22:20:07.545Z,14.52
2022-11-29T22:22:33.985Z,18.75
2022-11-29T22:25:00.436Z,19.25
2022-11-29T22:27:26.887Z,19.77
2022-11-29T22:29:53.362Z,17.45
2022-11-29T22:32:19.813Z,18.25
2022-11-29T22:34:46.504Z,19.17
2022-11-29T22:37:13.224Z,18.85
2022-11-29T22:39:39.656Z,17.65
2022-11-29T22:42:06.893Z,19.42
2022-11-29T22:44:33.360Z,18.73
2022-11-29T22:46:59.830Z,14.73
2022-11-29T22:49:26.358Z,18.35
2022-11-29T22:51:53.342Z,18.90
2022-11-29T22:54:20.287Z,19.38
2022-11-29T22:56:47.391Z,19.17
2022-11-29T22:59:14.122Z,16.90
2022-11-29T23:01:41.666Z,17.42
2022-11-29T23:04:09.430Z,17.40
2022-11-29T23:06:41.680Z,14.05
2022-11-29T23:09:16.337Z,13.55
2022-11-29T23:11:44.753Z,18.27
2022-11-29T23:14:11.696Z,17.13
2022-11-29T23:16:38.289Z,17.83
2022-11-29T23:19:04.770Z,18.17
2022-11-29T23:21:35.039Z,17.13
2022-11-29T23:24:02.271Z,19.05
2022-11-29T23:26:39.483Z,17.85
2022-11-29T23:29:08.388Z,16.95
2022-11-29T23:31:34.938Z,16.30
2022-11-29T23:34:02.613Z,18.35
2022-11-29T23:36:29.046Z,18.90
2022-11-29T23:38:55.497Z,18.60
2022-11-29T23:41:22.109Z,19.08
2022-11-29T23:43:48.560Z,15.65
2022-11-29T23:46:23.201Z,18.88
2022-11-29T23:48:50.413Z,18.33
2022-11-29T23:51:18.041Z,17.70
2022-11-29T23:53:44.840Z,16.50
2022-11-29T23:56:16.172Z,17.83
2022-11-29T23:58:43.695Z,18.98
